createdAt,value
2017-09-13T00:00:26.418Z,99.90
2017-09-13T00:02:55.044Z,99.90
2017-09-13T00:05:23.620Z,99.90
2017-09-13T00:07:52.511Z,99.90
2017-09-13T00:10:21.289Z,99.90
2017-09-13T00:12:49.832Z,99.90
2017-09-13T00:15:19.562Z,99.90
2017-09-13T00:17:48.377Z,99.90
2017-09-13T00:20:16.817Z,99.90
2017-09-13T00:22:46.142Z,99.90
2017-09-13T00:25:14.766Z,99.90
2017-09-13T00:27:43.229Z,99.90
2017-09-13T00:30:11.828Z,99.90
2017-09-13T00:32:40.345Z,99.90
2017-09-13T00:35:10.532Z,99.90
2017-09-13T00:37:39.558Z,99.90
2017-09-13T00:40:08.760Z,99.90
2017-09-13T00:42:37.480Z,99.90
2017-09-13T00:45:06.081Z,99.90
2017-09-13T00:47:34.490Z,99.90
2017-09-13T00:50:03.164Z,99.90
2017-09-13T00:52:32.052Z,99.90
2017-09-13T00:55:00.788Z,99.90
2017-09-13T00:57:30.252Z,99.90
2017-09-13T00:59:58.927Z,99.90
2017-09-13T01:02:27.473Z,99.90
2017-09-13T01:04:57.956Z,99.90
2017-09-13T01:07:26.568Z,99.90
2017-09-13T01:09:55.286Z,99.90
2017-09-13T01:12:23.817Z,99.90
2017-09-13T01:14:53.191Z,99.90
2017-09-13T01:17:21.741Z,99.90
2017-09-13T01:19:50.675Z,99.90
2017-09-13T01:22:19.284Z,99.90
2017-09-13T01:24:47.923Z,99.90
2017-09-13T01:27:16.052Z,99.90
2017-09-13T01:29:44.624Z,99.90
2017-09-13T01:32:13.374Z,99.90
2017-09-13T01:34:41.976Z,99.90
2017-09-13T01:37:10.588Z,99.70
2017-09-13T01:48:19.505Z,99.90
2017-09-13T01:50:48.876Z,99.90
2017-09-13T01:53:16.911Z,99.90
2017-09-13T01:55:45.740Z,99.90
2017-09-13T01:58:14.379Z,99.90
2017-09-13T02:00:43.757Z,99.90
2017-09-13T02:03:12.512Z,99.90
2017-09-13T02:05:40.842Z,99.90
2017-09-13T02:08:10.388Z,99.90
2017-09-13T02:10:39.059Z,99.90
2017-09-13T02:13:07.575Z,99.90
2017-09-13T02:15:36.156Z,99.90
2017-09-13T02:18:04.347Z,99.90
2017-09-13T02:20:32.844Z,99.90
2017-09-13T02:23:01.574Z,99.90
2017-09-13T02:25:30.168Z,99.80
2017-09-13T02:27:58.676Z,99.60
2017-09-13T02:30:27.287Z,99.50
2017-09-13T02:32:56.219Z,99.40
2017-09-13T02:37:59.372Z,99.00
2017-09-13T02:40:27.980Z,99.00
2017-09-13T02:42:56.710Z,98.80
2017-09-13T02:45:25.587Z,98.80
2017-09-13T02:47:54.094Z,98.80
2017-09-13T02:50:22.601Z,98.60
2017-09-13T02:52:51.411Z,98.40
2017-09-13T02:55:20.127Z,98.20
2017-09-13T02:57:49.545Z,97.90
2017-09-13T03:00:17.968Z,97.90
2017-09-13T03:02:46.601Z,97.70
2017-09-13T03:05:16.005Z,97.30
2017-09-13T03:07:44.869Z,97.30
2017-09-13T03:10:13.429Z,97.10
2017-09-13T03:12:41.463Z,97.00
2017-09-13T03:15:10.147Z,97.00
2017-09-13T03:17:38.175Z,96.60
2017-09-13T03:20:06.644Z,96.40
2017-09-13T03:22:35.433Z,96.80
2017-09-13T03:25:03.522Z,96.30
2017-09-13T03:27:32.291Z,96.00
2017-09-13T03:30:01.092Z,95.80
2017-09-13T03:32:29.765Z,95.60
2017-09-13T03:34:57.808Z,95.60
2017-09-13T03:37:26.448Z,95.30
2017-09-13T03:39:55.169Z,95.10
2017-09-13T03:42:24.539Z,94.80
2017-09-13T03:44:53.363Z,94.80
2017-09-13T03:47:21.645Z,94.70
2017-09-13T03:49:50.272Z,94.40
2017-09-13T03:52:19.092Z,94.60
2017-09-13T03:54:47.812Z,94.30
2017-09-13T03:57:16.317Z,94.50
2017-09-13T03:59:45.023Z,94.40
2017-09-13T04:02:13.600Z,93.90
2017-09-13T04:04:42.352Z,93.60
2017-09-13T04:07:10.899Z,93.40
2017-09-13T04:09:39.763Z,93.30
2017-09-13T04:12:08.352Z,93.40
2017-09-13T04:14:37.143Z,93.20
2017-09-13T04:17:05.812Z,93.10
2017-09-13T04:19:34.293Z,92.80
2017-09-13T04:22:03.100Z,92.80
2017-09-13T04:24:31.874Z,92.30
2017-09-13T04:27:00.356Z,92.10
2017-09-13T04:29:29.059Z,91.80
2017-09-13T04:31:57.639Z,91.40
2017-09-13T04:34:26.392Z,91.00
2017-09-13T04:36:54.987Z,90.70
2017-09-13T04:39:23.507Z,89.60
2017-09-13T04:41:52.249Z,89.00
2017-09-13T04:44:20.391Z,88.60
2017-09-13T04:46:48.974Z,88.30
2017-09-13T04:49:17.696Z,86.50
2017-09-13T04:51:46.296Z,84.30
2017-09-13T04:54:14.344Z,82.20
2017-09-13T04:56:43.723Z,80.00
2017-09-13T04:59:12.588Z,80.10
2017-09-13T05:01:41.056Z,79.20
2017-09-13T05:04:09.579Z,79.70
2017-09-13T05:06:39.593Z,81.10
2017-09-13T05:09:07.650Z,81.10
2017-09-13T05:11:36.569Z,81.80
2017-09-13T05:14:05.389Z,80.80
2017-09-13T05:16:33.819Z,81.10
2017-09-13T05:19:02.400Z,81.40
2017-09-13T05:21:31.180Z,80.50
2017-09-13T05:24:00.040Z,79.10
2017-09-13T05:26:28.568Z,77.20
2017-09-13T05:28:57.148Z,75.20
2017-09-13T05:31:25.828Z,73.10
2017-09-13T05:33:53.868Z,73.00
2017-09-13T05:36:21.983Z,72.60
2017-09-13T05:38:50.552Z,72.90
2017-09-13T05:41:19.163Z,73.50
2017-09-13T05:43:47.831Z,74.10
2017-09-13T05:46:16.608Z,74.20
2017-09-13T05:48:45.096Z,75.10
2017-09-13T05:51:13.295Z,75.20
2017-09-13T05:53:41.804Z,75.00
2017-09-13T05:56:10.638Z,75.10
2017-09-13T05:58:39.448Z,75.10
2017-09-13T06:01:07.524Z,75.40
2017-09-13T06:03:35.933Z,74.70
2017-09-13T06:06:04.827Z,75.40
2017-09-13T06:08:34.021Z,75.10
2017-09-13T06:11:02.080Z,75.00
2017-09-13T06:13:31.014Z,73.80
2017-09-13T06:15:59.064Z,71.30
2017-09-13T06:18:27.091Z,70.50
2017-09-13T06:20:55.419Z,68.70
2017-09-13T06:23:25.175Z,64.00
2017-09-13T06:25:53.276Z,63.90
2017-09-13T06:28:21.405Z,63.90
2017-09-13T06:30:50.111Z,64.70
2017-09-13T06:33:18.619Z,65.90
2017-09-13T06:35:47.412Z,66.40
2017-09-13T06:38:16.089Z,66.60
2017-09-13T06:40:44.508Z,67.70
2017-09-13T06:43:13.740Z,68.30
2017-09-13T06:45:42.256Z,68.30
2017-09-13T06:48:10.832Z,68.20
2017-09-13T06:50:39.790Z,68.30
2017-09-13T06:53:08.204Z,68.70
2017-09-13T06:55:36.680Z,69.10
2017-09-13T06:58:05.507Z,68.70
2017-09-13T07:00:34.155Z,68.60
2017-09-13T07:03:02.587Z,68.70
2017-09-13T07:05:32.600Z,68.60
2017-09-13T07:08:02.691Z,69.40
2017-09-13T07:10:32.704Z,68.80
2017-09-13T07:15:32.680Z,67.90
2017-09-13T07:18:01.987Z,66.90
2017-09-13T07:20:31.236Z,67.00
2017-09-13T07:23:00.044Z,67.00
2017-09-13T07:25:28.576Z,67.10
2017-09-13T07:27:57.833Z,66.80
2017-09-13T07:30:26.708Z,66.70
2017-09-13T07:32:55.487Z,66.70
2017-09-13T07:35:24.018Z,66.20
2017-09-13T07:37:53.360Z,66.20
2017-09-13T07:40:21.975Z,65.80
2017-09-13T07:42:50.586Z,64.30
2017-09-13T07:45:18.752Z,64.90
2017-09-13T07:47:47.324Z,64.40
2017-09-13T07:50:15.968Z,63.40
2017-09-13T07:52:44.139Z,63.10
2017-09-13T07:55:12.353Z,63.10
2017-09-13T07:57:40.771Z,62.70
2017-09-13T08:00:09.715Z,60.80
2017-09-13T08:02:38.244Z,60.80
2017-09-13T08:05:06.333Z,59.20
2017-09-13T08:07:35.981Z,56.60
2017-09-13T08:10:04.517Z,56.60
2017-09-13T08:12:33.770Z,55.20
2017-09-13T08:15:03.181Z,55.20
2017-09-13T08:17:32.164Z,55.70
2017-09-13T08:20:00.668Z,57.40
2017-09-13T08:22:28.968Z,58.80
2017-09-13T08:24:58.864Z,72.20
2017-09-13T08:27:26.927Z,72.20
2017-09-13T08:29:55.484Z,74.90
2017-09-13T08:32:24.103Z,76.10
2017-09-13T08:34:52.669Z,77.20
2017-09-13T08:37:21.338Z,77.90
2017-09-13T08:39:49.380Z,78.50
2017-09-13T08:42:18.673Z,79.10
2017-09-13T08:44:47.499Z,79.00
2017-09-13T08:47:15.899Z,79.60
2017-09-13T08:49:44.507Z,79.10
2017-09-13T08:52:13.331Z,79.10
2017-09-13T08:54:42.700Z,78.90
2017-09-13T08:57:11.312Z,78.70
2017-09-13T08:59:40.970Z,78.30
2017-09-13T09:02:09.587Z,79.60
2017-09-13T09:04:38.904Z,78.30
2017-09-13T09:07:07.088Z,78.40
2017-09-13T09:09:36.484Z,76.70
2017-09-13T09:12:06.983Z,77.10
2017-09-13T09:14:35.453Z,77.10
2017-09-13T09:17:04.089Z,78.40
2017-09-13T09:19:33.800Z,79.30
2017-09-13T09:22:03.176Z,80.70
2017-09-13T09:24:31.851Z,80.30
2017-09-13T09:27:00.371Z,81.10
2017-09-13T09:29:29.623Z,80.60
2017-09-13T09:31:58.232Z,81.00
2017-09-13T09:34:27.014Z,80.70
2017-09-13T09:36:55.764Z,81.30
2017-09-13T09:39:24.300Z,79.40
2017-09-13T09:41:53.079Z,79.40
2017-09-13T09:44:21.272Z,80.10
2017-09-13T09:46:49.775Z,81.20
2017-09-13T09:49:19.168Z,87.20
2017-09-13T09:51:47.733Z,87.20
2017-09-13T09:54:16.409Z,88.30
2017-09-13T09:56:45.403Z,89.10
2017-09-13T09:59:13.868Z,89.20
2017-09-13T10:01:42.475Z,89.90
2017-09-13T10:04:10.621Z,90.80
2017-09-13T10:06:39.287Z,91.10
2017-09-13T10:09:08.083Z,92.30
2017-09-13T10:11:36.839Z,92.70
2017-09-13T10:14:05.464Z,91.90
2017-09-13T10:16:33.940Z,92.10
2017-09-13T10:19:03.620Z,92.60
2017-09-13T10:21:32.685Z,92.60
2017-09-13T10:24:01.207Z,92.10
2017-09-13T10:26:29.967Z,93.10
2017-09-13T10:28:58.024Z,93.30
2017-09-13T10:31:26.556Z,93.40
2017-09-13T10:33:56.229Z,94.30
2017-09-13T10:36:24.704Z,94.30
2017-09-13T10:38:53.400Z,94.70
2017-09-13T10:41:22.977Z,94.00
2017-09-13T10:43:51.597Z,94.20
2017-09-13T10:46:21.236Z,94.00
2017-09-13T10:48:50.703Z,93.70
2017-09-13T10:51:19.133Z,93.60
2017-09-13T10:53:48.651Z,93.20
2017-09-13T10:56:18.032Z,93.60
2017-09-13T10:58:47.304Z,93.60
2017-09-13T11:01:15.944Z,93.60
2017-09-13T11:03:44.584Z,92.70
2017-09-13T11:06:13.160Z,92.70
2017-09-13T11:08:41.769Z,92.50
2017-09-13T11:11:10.589Z,91.30
2017-09-13T11:13:38.948Z,92.10
2017-09-13T11:16:08.505Z,92.10
2017-09-13T11:18:37.138Z,92.10
2017-09-13T11:21:05.800Z,91.90
2017-09-13T11:23:34.801Z,92.00
2017-09-13T11:26:03.604Z,91.80
2017-09-13T11:28:31.677Z,91.30
2017-09-13T11:31:00.295Z,92.00
2017-09-13T11:33:29.298Z,94.20
2017-09-13T11:35:57.902Z,93.60
2017-09-13T11:38:26.507Z,93.90
2017-09-13T11:40:55.184Z,94.10
2017-09-13T11:43:23.968Z,94.00
2017-09-13T11:45:52.491Z,95.40
2017-09-13T11:48:21.256Z,95.00
2017-09-13T11:50:49.892Z,95.80
2017-09-13T11:53:17.923Z,97.30
2017-09-13T11:55:46.096Z,98.20
2017-09-13T11:58:14.134Z,98.60
2017-09-13T12:00:42.277Z,98.10
2017-09-13T12:03:11.169Z,97.50
2017-09-13T12:05:39.980Z,96.40
2017-09-13T12:08:08.187Z,96.70
2017-09-13T12:10:36.331Z,97.20
2017-09-13T12:13:04.396Z,98.20
2017-09-13T12:15:32.858Z,98.90
2017-09-13T12:18:02.358Z,99.20
2017-09-13T12:20:30.941Z,99.20
2017-09-13T12:23:00.249Z,98.70
2017-09-13T12:25:30.108Z,99.50
2017-09-13T12:27:58.648Z,99.50
2017-09-13T12:30:28.319Z,99.90
2017-09-13T12:32:56.977Z,99.90
2017-09-13T12:35:25.546Z,99.90
2017-09-13T12:37:54.825Z,99.90
2017-09-13T12:40:23.443Z,99.90
2017-09-13T12:42:52.120Z,99.90
2017-09-13T12:45:20.840Z,99.90
2017-09-13T12:47:49.368Z,99.90
2017-09-13T12:50:17.844Z,99.90
2017-09-13T12:52:46.564Z,99.90
2017-09-13T12:55:16.015Z,99.90
2017-09-13T12:57:44.697Z,99.90
2017-09-13T13:00:12.756Z,99.90
2017-09-13T13:02:41.500Z,99.90
2017-09-13T13:05:10.764Z,99.90
2017-09-13T13:07:39.376Z,99.90
2017-09-13T13:10:07.900Z,99.90
2017-09-13T13:12:36.443Z,99.90
2017-09-13T13:15:04.526Z,99.90
2017-09-13T13:17:34.162Z,99.90
2017-09-13T13:20:02.208Z,99.90
2017-09-13T13:22:30.975Z,99.90
2017-09-13T13:24:59.886Z,99.90
2017-09-13T13:27:29.544Z,99.90
2017-09-13T13:29:57.595Z,99.90
2017-09-13T13:32:26.370Z,99.90
2017-09-13T13:34:55.884Z,99.90
2017-09-13T13:37:25.156Z,99.90
2017-09-13T13:39:53.916Z,99.90
2017-09-13T13:42:22.425Z,99.90
2017-09-13T13:44:50.924Z,99.90
2017-09-13T13:47:20.378Z,99.90
2017-09-13T13:49:48.893Z,99.90
2017-09-13T13:52:17.428Z,99.90
2017-09-13T13:54:46.230Z,99.90
2017-09-13T13:57:14.773Z,99.90
2017-09-13T13:59:44.172Z,99.90
2017-09-13T14:02:13.700Z,99.90
2017-09-13T14:04:42.126Z,99.90
2017-09-13T14:07:10.711Z,99.90
2017-09-13T14:09:38.868Z,99.90
2017-09-13T14:12:06.940Z,99.90
2017-09-13T14:14:34.997Z,99.90
2017-09-13T14:17:03.275Z,99.90
2017-09-13T14:19:31.596Z,99.90
2017-09-13T14:21:59.964Z,99.90
2017-09-13T14:24:28.096Z,99.90
2017-09-13T14:26:57.050Z,99.90
2017-09-13T14:29:25.489Z,99.90
2017-09-13T14:31:53.604Z,99.90
2017-09-13T14:34:21.660Z,99.90
2017-09-13T14:36:49.736Z,99.90
2017-09-13T14:39:17.961Z,99.90
2017-09-13T14:41:46.020Z,99.90
2017-09-13T14:44:15.181Z,99.90
2017-09-13T14:46:43.980Z,99.90
2017-09-13T14:49:12.653Z,99.90
2017-09-13T14:51:41.306Z,99.90
2017-09-13T14:54:10.354Z,99.90
2017-09-13T14:56:38.876Z,99.90
2017-09-13T14:59:08.114Z,99.90
2017-09-13T15:01:36.849Z,99.90
2017-09-13T15:04:06.098Z,99.90
2017-09-13T15:06:34.601Z,99.90
2017-09-13T15:09:03.412Z,99.90
2017-09-13T15:11:32.160Z,99.90
2017-09-13T15:14:00.646Z,99.90
2017-09-13T15:16:29.281Z,99.90
2017-09-13T15:18:58.628Z,99.90
2017-09-13T15:21:27.436Z,99.90
2017-09-13T15:23:56.331Z,99.90
2017-09-13T15:26:25.115Z,99.90
2017-09-13T15:28:54.733Z,99.90
2017-09-13T15:31:23.606Z,99.90
2017-09-13T15:33:52.299Z,99.90
2017-09-13T15:36:20.344Z,99.90
2017-09-13T15:38:49.002Z,99.90
2017-09-13T15:41:18.409Z,99.90
2017-09-13T15:43:47.960Z,99.90
2017-09-13T15:46:16.691Z,99.90
2017-09-13T15:48:45.283Z,99.90
2017-09-13T15:51:14.453Z,99.90
2017-09-13T15:53:43.236Z,99.90
2017-09-13T15:56:11.292Z,99.90
2017-09-13T15:58:39.335Z,99.90
2017-09-13T16:01:08.716Z,99.90
2017-09-13T16:03:37.196Z,99.90
2017-09-13T16:06:05.244Z,99.90
2017-09-13T16:08:34.031Z,99.90
2017-09-13T16:11:02.647Z,99.90
2017-09-13T16:13:31.186Z,99.90
2017-09-13T16:16:00.702Z,99.90
2017-09-13T16:18:29.355Z,99.90
2017-09-13T16:20:57.883Z,99.90
2017-09-13T16:23:26.015Z,99.90
2017-09-13T16:25:54.074Z,99.90
2017-09-13T16:28:23.435Z,99.90
2017-09-13T16:30:52.244Z,99.90
2017-09-13T16:33:21.728Z,99.90
2017-09-13T16:35:50.309Z,99.90
2017-09-13T16:38:18.951Z,99.90
2017-09-13T16:40:47.409Z,99.90
2017-09-13T16:43:16.616Z,99.90
2017-09-13T16:45:46.036Z,99.90
2017-09-13T16:48:14.495Z,99.90
2017-09-13T16:50:43.696Z,99.90
2017-09-13T16:53:13.332Z,99.90
2017-09-13T16:55:42.776Z,99.90
2017-09-13T16:58:10.834Z,99.90
2017-09-13T17:00:39.088Z,99.90
2017-09-13T17:03:07.205Z,99.90
2017-09-13T17:05:35.892Z,99.90
2017-09-13T17:08:04.609Z,99.90
2017-09-13T17:10:33.101Z,99.90
2017-09-13T17:13:02.497Z,99.90
2017-09-13T17:15:31.636Z,99.90
2017-09-13T17:18:00.168Z,99.90
2017-09-13T17:20:28.715Z,99.90
2017-09-13T17:22:57.297Z,99.90
2017-09-13T17:25:25.898Z,99.90
2017-09-13T17:27:55.281Z,99.90
2017-09-13T17:30:24.097Z,99.90
2017-09-13T17:32:52.237Z,99.90
2017-09-13T17:35:20.987Z,99.90
2017-09-13T17:37:50.590Z,99.90
2017-09-13T17:40:19.028Z,99.90
2017-09-13T17:42:47.629Z,99.90
2017-09-13T17:45:16.239Z,99.90
2017-09-13T17:47:45.311Z,99.90
2017-09-13T17:50:14.057Z,99.90
2017-09-13T17:52:42.548Z,99.90
2017-09-13T17:55:11.077Z,99.90
2017-09-13T17:57:39.833Z,99.90
2017-09-13T18:00:07.984Z,99.90
2017-09-13T18:02:36.720Z,99.90
2017-09-13T18:05:04.781Z,99.90
2017-09-13T18:07:33.480Z,99.90
2017-09-13T18:10:01.520Z,99.90
2017-09-13T18:12:29.932Z,99.90
2017-09-13T18:14:58.164Z,99.90
2017-09-13T18:17:27.672Z,99.90
2017-09-13T18:19:56.357Z,99.90
2017-09-13T18:22:25.937Z,99.90
2017-09-13T18:24:55.317Z,99.90
2017-09-13T18:27:23.924Z,99.90
2017-09-13T18:29:53.312Z,99.90
2017-09-13T18:32:21.992Z,99.90
2017-09-13T18:34:50.403Z,99.90
2017-09-13T18:37:19.408Z,99.90
2017-09-13T18:39:48.552Z,99.90
2017-09-13T18:42:17.237Z,99.90
2017-09-13T18:44:45.736Z,99.90
2017-09-13T18:47:14.390Z,99.90
2017-09-13T18:49:44.764Z,99.90
2017-09-13T18:52:13.509Z,99.90
2017-09-13T18:54:42.147Z,99.90
2017-09-13T18:57:10.968Z,99.90
2017-09-13T18:59:39.615Z,99.90
2017-09-13T19:02:08.112Z,99.90
2017-09-13T19:04:36.761Z,99.90
2017-09-13T19:07:05.539Z,99.90
2017-09-13T19:09:34.076Z,99.90
2017-09-13T19:12:03.216Z,99.90
2017-09-13T19:14:31.924Z,99.90
2017-09-13T19:17:00.545Z,99.90
2017-09-13T19:19:29.182Z,99.90
2017-09-13T19:21:57.319Z,99.90
2017-09-13T19:24:26.858Z,99.90
2017-09-13T19:26:55.368Z,99.90
2017-09-13T19:29:24.048Z,99.90
2017-09-13T19:31:52.612Z,99.90
2017-09-13T19:34:21.152Z,99.90
2017-09-13T19:36:50.447Z,99.90
2017-09-13T19:39:19.311Z,99.90
2017-09-13T19:41:47.355Z,99.90
2017-09-13T19:44:16.103Z,99.90
2017-09-13T19:46:44.660Z,99.90
2017-09-13T19:49:13.339Z,99.90
2017-09-13T19:51:42.218Z,99.90
2017-09-13T19:54:10.703Z,99.90
2017-09-13T19:56:39.212Z,99.90
2017-09-13T19:59:07.988Z,99.90
2017-09-13T20:01:36.732Z,99.90
2017-09-13T20:04:05.141Z,99.90
2017-09-13T20:06:34.084Z,99.90
2017-09-13T20:09:02.664Z,99.90
2017-09-13T20:11:31.936Z,99.90
2017-09-13T20:14:00.651Z,99.90
2017-09-13T20:16:29.372Z,99.90
2017-09-13T20:18:58.639Z,99.90
2017-09-13T20:21:29.000Z,99.90
2017-09-13T20:23:57.403Z,99.90
2017-09-13T20:26:26.032Z,99.90
2017-09-13T20:28:54.896Z,99.90
2017-09-13T20:31:23.370Z,99.90
2017-09-13T20:33:51.963Z,99.90
2017-09-13T20:36:20.579Z,99.90
2017-09-13T20:38:49.856Z,99.90
2017-09-13T20:41:18.955Z,99.90
2017-09-13T20:43:47.664Z,99.90
2017-09-13T20:46:16.383Z,99.90
2017-09-13T20:48:44.788Z,99.90
2017-09-13T20:51:12.971Z,99.90
2017-09-13T20:53:41.727Z,99.90
2017-09-13T20:56:10.133Z,99.90
2017-09-13T20:58:38.840Z,99.90
2017-09-13T21:01:07.520Z,99.90
2017-09-13T21:03:36.196Z,99.90
2017-09-13T21:06:04.861Z,99.90
2017-09-13T21:08:33.383Z,99.90
2017-09-13T21:11:02.063Z,99.90
2017-09-13T21:13:30.960Z,99.90
2017-09-13T21:15:59.545Z,99.90
2017-09-13T21:18:28.032Z,99.90
2017-09-13T21:20:56.821Z,99.90
2017-09-13T21:23:25.504Z,99.90
2017-09-13T21:25:54.280Z,99.90
2017-09-13T21:28:22.884Z,99.90
2017-09-13T21:30:51.467Z,99.90
2017-09-13T21:33:20.147Z,99.90
2017-09-13T21:35:48.826Z,99.90
2017-09-13T21:38:17.252Z,99.90
2017-09-13T21:40:45.915Z,99.90
2017-09-13T21:43:14.900Z,99.90
2017-09-13T21:45:43.676Z,99.90
2017-09-13T21:48:12.236Z,99.90
2017-09-13T21:50:40.354Z,99.90
2017-09-13T21:53:08.817Z,99.90
2017-09-13T21:55:37.343Z,99.90
2017-09-13T21:58:07.644Z,99.90
2017-09-13T22:00:35.679Z,99.90
2017-09-13T22:03:04.428Z,99.90
2017-09-13T22:05:33.292Z,99.90
2017-09-13T22:08:01.359Z,99.90
2017-09-13T22:10:29.847Z,99.90
2017-09-13T22:12:58.605Z,99.90
2017-09-13T22:15:27.108Z,99.90
2017-09-13T22:17:55.914Z,99.90
2017-09-13T22:20:24.704Z,99.90
2017-09-13T22:22:53.444Z,99.90
2017-09-13T22:25:22.719Z,99.90
2017-09-13T22:27:51.712Z,99.90
2017-09-13T22:30:20.460Z,99.90
2017-09-13T22:32:48.483Z,99.90
2017-09-13T22:35:17.376Z,99.90
2017-09-13T22:37:46.643Z,99.90
2017-09-13T22:40:15.216Z,99.90
2017-09-13T22:42:43.791Z,99.90
2017-09-13T22:45:12.580Z,99.90
2017-09-13T22:47:41.188Z,99.90
2017-09-13T22:50:09.971Z,99.90
2017-09-13T22:52:38.820Z,99.90
2017-09-13T22:55:08.164Z,99.90
2017-09-13T22:57:37.084Z,99.90
2017-09-13T23:00:07.167Z,99.90
2017-09-13T23:02:35.699Z,99.90
2017-09-13T23:05:05.032Z,99.90
2017-09-13T23:07:34.528Z,99.90
2017-09-13T23:10:03.804Z,99.90
2017-09-13T23:12:33.080Z,99.90
2017-09-13T23:15:01.623Z,99.90
2017-09-13T23:17:30.024Z,99.90
2017-09-13T23:19:58.730Z,99.90
2017-09-13T23:22:27.440Z,99.90
2017-09-13T23:24:56.185Z,99.90
2017-09-13T23:27:24.994Z,99.90
2017-09-13T23:29:53.729Z,99.90
2017-09-13T23:32:22.365Z,99.90
2017-09-13T23:34:51.177Z,99.90
2017-09-13T23:37:19.610Z,99.90
2017-09-13T23:39:48.124Z,99.90
2017-09-13T23:42:16.938Z,99.90
2017-09-13T23:44:45.659Z,99.90
2017-09-13T23:47:14.314Z,99.90
2017-09-13T23:49:43.098Z,99.90
2017-09-13T23:52:11.127Z,99.90
2017-09-13T23:54:39.651Z,99.90
2017-09-13T23:57:08.346Z,99.90
2017-09-13T23:59:36.994Z,99.90
